Time;durP1;ratioP1;P1;durP2;ratioP2;P2;SDS_P1;SDS_P2;PMS_P1;PMS_P2;Temp;Humidity;BMP_temperature;BMP_pressure;BME280_temperature;BME280_humidity;BME280_pressure;Samples;Min_cycle;Max_cycle;Signal;HPM_P1;HPM_P2
2023/12/06 00:00:31;;;;;;;48.70;17.70;;;;;;;;;;4925586;29;20052;-75
2023/12/06 00:03:01;;;;;;;49.47;18.20;;;;;;;;;;4927463;29;20184;-75
2023/12/06 00:05:31;;;;;;;53.47;19.77;;;;;;;;;;4926364;29;20047;-77
2023/12/06 00:08:00;;;;;;;41.10;16.20;;;;;;;;;;4925457;29;21033;-76
2023/12/06 00:10:28;;;;;;;46.45;17.77;;;;;;;;;;4927644;29;20104;-76
2023/12/06 00:12:59;;;;;;;43.28;16.55;;;;;;;;;;4922100;29;20051;-77
2023/12/06 00:15:28;;;;;;;47.05;18.05;;;;;;;;;;4926719;29;20067;-76
2023/12/06 00:17:57;;;;;;;39.03;15.43;;;;;;;;;;4921648;28;20079;-75
2023/12/06 00:20:25;;;;;;;50.05;18.70;;;;;;;;;;4912212;29;20054;-76
2023/12/06 00:22:56;;;;;;;42.47;16.33;;;;;;;;;;4912739;29;20062;-76
2023/12/06 00:25:25;;;;;;;53.25;17.80;;;;;;;;;;4894954;29;21113;-75
2023/12/06 00:27:55;;;;;;;49.08;18.33;;;;;;;;;;4916878;28;20047;-74
2023/12/06 00:30:24;;;;;;;46.60;18.83;;;;;;;;;;4898766;29;20554;-74
2023/12/06 00:32:53;;;;;;;45.60;17.98;;;;;;;;;;4900658;29;20058;-75
2023/12/06 00:35:21;;;;;;;49.95;18.10;;;;;;;;;;4888976;29;20062;-75
2023/12/06 00:37:50;;;;;;;48.28;19.48;;;;;;;;;;4899698;29;20060;-75
2023/12/06 00:40:20;;;;;;;48.42;18.30;;;;;;;;;;4890756;29;20134;-75
2023/12/06 00:42:49;;;;;;;40.85;15.82;;;;;;;;;;4900600;28;20040;-74
2023/12/06 00:45:18;;;;;;;50.10;18.45;;;;;;;;;;4901036;29;20150;-74
2023/12/06 00:47:46;;;;;;;47.05;18.15;;;;;;;;;;4890754;29;20182;-75
2023/12/06 00:50:15;;;;;;;45.65;17.83;;;;;;;;;;4907261;28;20063;-75
2023/12/06 00:52:44;;;;;;;41.15;17.58;;;;;;;;;;4898330;29;20052;-74
2023/12/06 00:55:12;;;;;;;49.20;17.77;;;;;;;;;;4913544;28;20055;-75
2023/12/06 00:57:43;;;;;;;44.47;17.40;;;;;;;;;;4891087;29;20052;-75
2023/12/06 01:00:13;;;;;;;48.47;16.17;;;;;;;;;;4901060;29;20063;-74
2023/12/06 01:02:42;;;;;;;45.70;17.35;;;;;;;;;;4910593;29;20055;-75
2023/12/06 01:05:11;;;;;;;52.08;17.90;;;;;;;;;;4919408;28;20082;-75
2023/12/06 01:07:40;;;;;;;51.58;17.95;;;;;;;;;;4904699;29;20147;-75
2023/12/06 01:10:09;;;;;;;46.38;17.73;;;;;;;;;;4908622;29;20075;-75
2023/12/06 01:12:38;;;;;;;46.63;16.77;;;;;;;;;;4896842;29;20108;-75
2023/12/06 01:15:09;;;;;;;41.53;15.02;;;;;;;;;;4894061;29;20495;-75
2023/12/06 01:17:38;;;;;;;46.35;17.92;;;;;;;;;;4893288;29;20067;-75
2023/12/06 01:20:08;;;;;;;41.67;15.02;;;;;;;;;;4896513;29;20083;-76
2023/12/06 01:22:37;;;;;;;46.10;17.45;;;;;;;;;;4893277;29;20055;-75
2023/12/06 01:25:06;;;;;;;50.25;17.92;;;;;;;;;;4900862;29;20051;-76
2023/12/06 01:27:35;;;;;;;45.30;16.80;;;;;;;;;;4920595;28;20083;-75
2023/12/06 01:30:05;;;;;;;55.40;17.30;;;;;;;;;;4904707;29;20059;-76
2023/12/06 01:32:41;;;;;;;49.85;16.65;;;;;;;;;;4894936;29;20055;-74
2023/12/06 01:35:10;;;;;;;45.47;15.65;;;;;;;;;;4896791;29;22479;-75
2023/12/06 01:37:39;;;;;;;47.95;16.55;;;;;;;;;;4894924;29;20058;-74
2023/12/06 01:40:09;;;;;;;41.70;16.35;;;;;;;;;;4904369;29;20051;-75
2023/12/06 01:42:38;;;;;;;41.65;16.23;;;;;;;;;;4926547;28;20134;-75
2023/12/06 01:45:07;;;;;;;42.95;14.93;;;;;;;;;;4909472;29;20063;-75
2023/12/06 01:47:38;;;;;;;40.75;15.80;;;;;;;;;;4910069;29;20523;-75
2023/12/06 01:50:09;;;;;;;41.47;14.98;;;;;;;;;;4918623;28;20055;-75
2023/12/06 01:52:38;;;;;;;43.10;14.38;;;;;;;;;;4903780;29;20138;-75
2023/12/06 01:55:07;;;;;;;36.33;14.93;;;;;;;;;;4899819;29;20718;-75
2023/12/06 01:57:37;;;;;;;37.75;14.23;;;;;;;;;;4911783;29;20163;-75
2023/12/06 02:00:07;;;;;;;44.40;16.10;;;;;;;;;;4924443;28;20068;-75
2023/12/06 02:02:41;;;;;;;46.40;16.00;;;;;;;;;;4918259;29;20048;-75
2023/12/06 02:05:12;;;;;;;47.22;17.88;;;;;;;;;;4899768;29;20059;-75
2023/12/06 02:07:41;;;;;;;41.55;17.88;;;;;;;;;;4915786;28;20062;-76
2023/12/06 02:10:10;;;;;;;51.63;18.25;;;;;;;;;;4904744;29;20071;-75
2023/12/06 02:12:40;;;;;;;49.90;16.30;;;;;;;;;;4896387;29;20194;-76
2023/12/06 02:15:13;;;;;;;39.28;15.40;;;;;;;;;;4924885;29;20043;-75
2023/12/06 02:17:42;;;;;;;45.53;18.48;;;;;;;;;;4934740;29;20123;-75
2023/12/06 02:20:15;;;;;;;46.10;16.80;;;;;;;;;;4926646;29;20627;-75
2023/12/06 02:22:46;;;;;;;43.92;16.13;;;;;;;;;;4919526;29;20514;-75
2023/12/06 02:25:18;;;;;;;38.60;12.80;;;;;;;;;;4930117;29;22619;-75
2023/12/06 02:27:53;;;;;;;38.33;15.73;;;;;;;;;;4935756;29;20455;-74
2023/12/06 02:30:22;;;;;;;44.05;13.45;;;;;;;;;;4943546;29;20445;-75
2023/12/06 02:32:50;;;;;;;47.80;15.85;;;;;;;;;;4924910;29;20051;-75
2023/12/06 02:35:21;;;;;;;43.08;14.52;;;;;;;;;;4935034;29;20050;-75
2023/12/06 02:37:50;;;;;;;44.13;15.40;;;;;;;;;;4926534;29;20060;-76
2023/12/06 02:40:21;;;;;;;44.20;15.07;;;;;;;;;;4946352;29;20052;-75
2023/12/06 02:42:50;;;;;;;43.78;14.60;;;;;;;;;;4932304;29;20063;-79
2023/12/06 02:45:19;;;;;;;40.55;14.85;;;;;;;;;;4926117;28;20086;-79
2023/12/06 02:47:48;;;;;;;42.28;14.73;;;;;;;;;;4932541;29;20080;-79
2023/12/06 02:50:17;;;;;;;42.72;14.65;;;;;;;;;;4935842;28;20059;-78
2023/12/06 02:52:46;;;;;;;46.22;14.13;;;;;;;;;;4916652;28;20054;-77
2023/12/06 02:55:15;;;;;;;38.58;14.40;;;;;;;;;;4917892;28;20062;-79
2023/12/06 03:00:45;;;;;;;38.95;12.73;;;;;;;;;;5381633;23;20134;-79
2023/12/06 03:03:15;;;;;;;42.22;15.30;;;;;;;;;;4918221;28;20036;-79
2023/12/06 03:05:45;;;;;;;40.63;14.75;;;;;;;;;;4926972;28;20047;-79
2023/12/06 03:08:14;;;;;;;40.50;14.35;;;;;;;;;;4925502;28;20055;-80
2023/12/06 03:10:43;;;;;;;44.22;15.85;;;;;;;;;;4933013;28;20043;-79
2023/12/06 03:13:12;;;;;;;40.20;15.30;;;;;;;;;;4925354;28;20040;-79
2023/12/06 03:15:42;;;;;;;49.95;15.75;;;;;;;;;;4940309;28;20051;-79
2023/12/06 03:18:12;;;;;;;45.30;16.75;;;;;;;;;;4928927;28;20142;-81
2023/12/06 03:20:41;;;;;;;42.25;15.57;;;;;;;;;;4916271;28;20036;-79
2023/12/06 03:23:11;;;;;;;47.17;16.65;;;;;;;;;;4932641;29;20048;-79
2023/12/06 03:25:40;;;;;;;43.55;15.43;;;;;;;;;;4927783;28;20169;-79
2023/12/06 03:28:09;;;;;;;42.55;15.45;;;;;;;;;;4925391;28;20159;-79
2023/12/06 03:30:38;;;;;;;45.72;16.25;;;;;;;;;;4916205;29;20123;-79
2023/12/06 03:33:07;;;;;;;53.00;17.75;;;;;;;;;;4929025;28;20036;-79
2023/12/06 03:35:38;;;;;;;49.65;18.40;;;;;;;;;;4919505;28;20040;-79
2023/12/06 03:38:07;;;;;;;45.92;16.55;;;;;;;;;;4941258;28;20051;-79
2023/12/06 03:40:36;;;;;;;54.42;17.27;;;;;;;;;;4931741;29;20058;-79
2023/12/06 03:43:08;;;;;;;51.33;18.30;;;;;;;;;;4929223;29;20066;-79
2023/12/06 03:45:37;;;;;;;47.20;16.63;;;;;;;;;;4923518;28;22004;-78
2023/12/06 03:48:07;;;;;;;47.90;16.52;;;;;;;;;;4923674;28;20046;-79
2023/12/06 03:50:37;;;;;;;50.95;17.48;;;;;;;;;;4937898;28;20040;-78
2023/12/06 03:53:08;;;;;;;42.55;15.80;;;;;;;;;;4916811;29;20444;-75
2023/12/06 03:55:38;;;;;;;46.38;14.65;;;;;;;;;;4924627;28;20063;-75
2023/12/06 03:58:09;;;;;;;40.30;14.90;;;;;;;;;;4919589;29;20048;-76
2023/12/06 04:00:38;;;;;;;45.97;17.42;;;;;;;;;;4910816;29;20150;-76
2023/12/06 04:03:08;;;;;;;45.97;16.08;;;;;;;;;;4902082;29;20056;-75
2023/12/06 04:05:39;;;;;;;49.58;16.92;;;;;;;;;;4919219;29;20147;-76
2023/12/06 04:08:07;;;;;;;48.95;17.10;;;;;;;;;;4929118;28;20052;-75
2023/12/06 04:10:36;;;;;;;41.53;15.82;;;;;;;;;;4899470;29;20075;-75
2023/12/06 04:13:06;;;;;;;44.45;16.63;;;;;;;;;;4915788;29;22473;-76
2023/12/06 04:15:35;;;;;;;45.97;16.58;;;;;;;;;;4910695;29;20047;-76
2023/12/06 04:18:04;;;;;;;43.67;15.50;;;;;;;;;;4916268;29;20411;-76
2023/12/06 04:20:35;;;;;;;53.92;16.73;;;;;;;;;;4907835;29;20062;-75
2023/12/06 04:23:06;;;;;;;47.80;16.25;;;;;;;;;;4928635;28;20135;-76
2023/12/06 04:25:35;;;;;;;52.92;16.40;;;;;;;;;;4925512;28;20435;-76
2023/12/06 04:28:04;;;;;;;49.10;16.85;;;;;;;;;;4903582;29;20106;-75
2023/12/06 04:30:33;;;;;;;46.03;16.73;;;;;;;;;;4916445;29;20102;-76
2023/12/06 04:33:01;;;;;;;41.60;15.98;;;;;;;;;;4910412;29;20142;-75
2023/12/06 04:35:31;;;;;;;47.97;17.08;;;;;;;;;;4924051;28;20134;-76
2023/12/06 04:37:59;;;;;;;47.60;16.00;;;;;;;;;;4908307;29;20055;-77
2023/12/06 04:40:29;;;;;;;48.15;17.42;;;;;;;;;;4913583;29;20062;-76
2023/12/06 04:42:58;;;;;;;47.78;18.45;;;;;;;;;;4899507;29;20043;-75
2023/12/06 04:45:27;;;;;;;47.30;18.25;;;;;;;;;;4916027;29;20047;-75
2023/12/06 04:47:56;;;;;;;51.70;19.05;;;;;;;;;;4916360;29;20058;-76
2023/12/06 04:50:28;;;;;;;47.50;17.35;;;;;;;;;;4907820;29;20415;-75
2023/12/06 04:52:57;;;;;;;48.15;18.38;;;;;;;;;;4923610;28;20623;-76
2023/12/06 04:55:26;;;;;;;48.20;18.55;;;;;;;;;;4913241;29;20055;-75
2023/12/06 04:57:56;;;;;;;52.05;17.92;;;;;;;;;;4913702;28;20075;-75
2023/12/06 05:00:26;;;;;;;56.85;20.80;;;;;;;;;;4911632;29;20821;-76
2023/12/06 05:02:55;;;;;;;57.78;20.60;;;;;;;;;;4903375;29;20063;-75
2023/12/06 05:05:25;;;;;;;54.55;20.23;;;;;;;;;;4917094;29;20091;-76
2023/12/06 05:07:55;;;;;;;58.80;19.90;;;;;;;;;;4904942;28;20076;-76
2023/12/06 05:10:24;;;;;;;55.65;18.15;;;;;;;;;;4894230;29;20052;-75
2023/12/06 05:12:54;;;;;;;49.42;17.98;;;;;;;;;;4913631;29;20051;-76
2023/12/06 05:15:24;;;;;;;55.13;17.92;;;;;;;;;;4913799;28;20278;-76
2023/12/06 05:17:52;;;;;;;51.67;19.50;;;;;;;;;;4910041;29;20146;-75
2023/12/06 05:20:22;;;;;;;49.08;16.30;;;;;;;;;;4891939;29;20055;-75
2023/12/06 05:22:51;;;;;;;57.42;17.90;;;;;;;;;;4909326;28;22204;-76
2023/12/06 05:25:20;;;;;;;48.28;18.98;;;;;;;;;;4915229;28;20089;-76
2023/12/06 05:27:49;;;;;;;42.70;15.77;;;;;;;;;;4907671;29;20602;-76
2023/12/06 05:30:18;;;;;;;52.92;18.55;;;;;;;;;;4893083;29;20523;-75
2023/12/06 05:32:50;;;;;;;59.63;22.08;;;;;;;;;;4917523;28;20518;-77
2023/12/06 05:35:20;;;;;;;53.03;18.98;;;;;;;;;;4900898;29;20060;-76
2023/12/06 05:37:49;;;;;;;61.65;20.92;;;;;;;;;;4901237;29;20091;-75
2023/12/06 05:40:19;;;;;;;54.42;19.08;;;;;;;;;;4901905;29;20056;-75
2023/12/06 05:42:48;;;;;;;62.63;21.33;;;;;;;;;;4915076;28;20052;-75
2023/12/06 05:45:17;;;;;;;62.10;19.80;;;;;;;;;;4906001;29;20146;-75
2023/12/06 05:47:46;;;;;;;61.45;20.52;;;;;;;;;;4907979;29;20062;-77
2023/12/06 05:50:17;;;;;;;65.00;23.42;;;;;;;;;;4914150;29;20060;-75
2023/12/06 05:52:45;;;;;;;57.20;21.88;;;;;;;;;;4908604;29;20400;-76
2023/12/06 05:55:14;;;;;;;53.60;19.20;;;;;;;;;;4899487;29;20198;-75
2023/12/06 05:57:43;;;;;;;54.47;19.02;;;;;;;;;;4899068;29;20063;-75
2023/12/06 06:00:13;;;;;;;55.47;19.88;;;;;;;;;;4906779;29;20062;-76
2023/12/06 06:02:43;;;;;;;59.95;19.85;;;;;;;;;;4901857;29;20805;-76
2023/12/06 06:05:13;;;;;;;49.75;18.08;;;;;;;;;;4875852;29;20079;-75
2023/12/06 06:07:44;;;;;;;56.22;18.55;;;;;;;;;;4913230;28;20071;-75
2023/12/06 06:10:14;;;;;;;63.88;21.88;;;;;;;;;;4900043;29;20138;-76
2023/12/06 06:12:43;;;;;;;58.20;20.48;;;;;;;;;;4931314;28;20090;-80
2023/12/06 06:15:12;;;;;;;59.17;20.65;;;;;;;;;;4922189;28;20098;-80
2023/12/06 06:17:41;;;;;;;55.75;20.83;;;;;;;;;;4934702;28;20032;-81
2023/12/06 06:20:11;;;;;;;53.88;21.40;;;;;;;;;;4924696;28;20054;-80
2023/12/06 06:22:41;;;;;;;54.35;21.02;;;;;;;;;;4931137;28;20031;-80
2023/12/06 06:25:12;;;;;;;53.33;18.95;;;;;;;;;;4921701;28;20050;-82
2023/12/06 06:27:41;;;;;;;53.88;19.65;;;;;;;;;;4931294;28;21834;-80
2023/12/06 06:54:14;;;;;;;61.53;21.67;;;;;;;;;;6003524;23;20307;31
2023/12/06 06:56:43;;;;;;;64.60;23.00;;;;;;;;;;4860028;29;20054;-79
2023/12/06 06:59:13;;;;;;;60.97;20.75;;;;;;;;;;4830447;29;20170;-79
2023/12/06 07:01:43;;;;;;;55.38;20.25;;;;;;;;;;4839562;29;22798;-79
2023/12/06 07:04:12;;;;;;;51.72;20.25;;;;;;;;;;4833656;29;20058;-79
2023/12/06 07:06:41;;;;;;;71.05;23.30;;;;;;;;;;4830616;29;20038;-79
2023/12/06 07:09:10;;;;;;;60.53;22.20;;;;;;;;;;4838933;29;20074;-79
2023/12/06 07:11:41;;;;;;;60.30;21.02;;;;;;;;;;4832588;29;20046;-79
2023/12/06 07:14:10;;;;;;;66.20;24.10;;;;;;;;;;4850636;29;20135;-79
2023/12/06 07:16:39;;;;;;;52.75;18.83;;;;;;;;;;4846652;29;20094;-79
2023/12/06 07:19:10;;;;;;;56.42;21.15;;;;;;;;;;4831424;29;20050;-79
2023/12/06 07:21:40;;;;;;;59.08;20.70;;;;;;;;;;4860218;29;20046;-78
2023/12/06 07:24:09;;;;;;;60.33;20.92;;;;;;;;;;4819073;29;20092;-78
2023/12/06 07:26:42;;;;;;;56.08;20.92;;;;;;;;;;4844347;29;20609;-77
2023/12/06 07:29:12;;;;;;;52.88;19.92;;;;;;;;;;4836086;29;20118;-77
2023/12/06 07:31:41;;;;;;;61.63;20.88;;;;;;;;;;4833344;29;20560;-77
2023/12/06 07:34:10;;;;;;;54.80;19.45;;;;;;;;;;4817375;29;20056;-78
2023/12/06 07:36:48;;;;;;;54.70;19.75;;;;;;;;;;4838770;29;20058;-78
2023/12/06 07:39:18;;;;;;;59.65;20.77;;;;;;;;;;4803058;29;20054;-78
2023/12/06 07:41:48;;;;;;;55.20;20.85;;;;;;;;;;4813764;29;20145;-77
2023/12/06 07:44:18;;;;;;;57.38;21.10;;;;;;;;;;4824986;29;20050;-78
2023/12/06 07:46:46;;;;;;;68.22;22.70;;;;;;;;;;4809556;29;20065;-77
2023/12/06 07:49:16;;;;;;;48.40;19.48;;;;;;;;;;4807729;29;20150;-77
2023/12/06 07:51:45;;;;;;;55.70;20.58;;;;;;;;;;4806944;29;20060;-76
2023/12/06 07:54:14;;;;;;;59.75;22.45;;;;;;;;;;4811204;29;20054;-76
2023/12/06 07:56:44;;;;;;;57.10;22.35;;;;;;;;;;4840196;29;20074;-76
2023/12/06 07:59:14;;;;;;;58.13;21.63;;;;;;;;;;4807344;29;20161;-76
2023/12/06 08:01:43;;;;;;;55.13;22.02;;;;;;;;;;4809459;29;20522;-76
2023/12/06 08:04:15;;;;;;;50.55;19.48;;;;;;;;;;4828019;29;20054;-77
2023/12/06 08:06:44;;;;;;;54.03;20.40;;;;;;;;;;4811182;29;20065;-78
2023/12/06 08:09:13;;;;;;;53.42;19.60;;;;;;;;;;4811745;29;20129;-77
2023/12/06 08:11:42;;;;;;;60.92;22.08;;;;;;;;;;4808254;29;20057;-78
2023/12/06 08:14:11;;;;;;;58.72;22.20;;;;;;;;;;4812469;29;20050;-77
2023/12/06 08:16:41;;;;;;;61.75;22.35;;;;;;;;;;4809755;29;20064;-78
2023/12/06 08:19:10;;;;;;;57.63;23.33;;;;;;;;;;4808985;29;20092;-76
2023/12/06 08:21:39;;;;;;;63.20;25.02;;;;;;;;;;4828359;29;20062;-76
2023/12/06 08:24:08;;;;;;;60.05;24.05;;;;;;;;;;4824485;29;20062;-76
2023/12/06 08:26:36;;;;;;;57.22;22.42;;;;;;;;;;4811078;29;20436;-77
2023/12/06 08:29:05;;;;;;;54.25;20.50;;;;;;;;;;4827308;29;20066;-76
2023/12/06 08:31:34;;;;;;;56.05;23.15;;;;;;;;;;4813419;29;20065;-76
2023/12/06 08:34:04;;;;;;;57.83;24.27;;;;;;;;;;4809871;29;20069;-76
2023/12/06 08:36:33;;;;;;;56.70;21.42;;;;;;;;;;4823145;29;20054;-76
2023/12/06 08:39:03;;;;;;;52.90;20.20;;;;;;;;;;4807356;29;20113;-76
2023/12/06 08:41:32;;;;;;;49.30;20.80;;;;;;;;;;4832191;29;20083;-76
2023/12/06 08:44:01;;;;;;;55.28;20.35;;;;;;;;;;4827364;29;20407;-77
2023/12/06 08:46:30;;;;;;;47.28;18.52;;;;;;;;;;4810491;29;20719;-76
2023/12/06 08:48:59;;;;;;;51.28;21.25;;;;;;;;;;4811237;29;20064;-76
2023/12/06 08:51:29;;;;;;;46.75;19.60;;;;;;;;;;4841621;29;20529;-76
2023/12/06 08:53:58;;;;;;;50.38;19.73;;;;;;;;;;4818686;29;22596;-76
2023/12/06 08:56:27;;;;;;;45.78;20.08;;;;;;;;;;4824160;29;20849;-76
2023/12/06 08:58:56;;;;;;;49.17;20.23;;;;;;;;;;4819967;29;20413;-75
2023/12/06 09:01:24;;;;;;;58.25;23.63;;;;;;;;;;4813906;29;20886;-76
2023/12/06 09:03:54;;;;;;;48.45;21.10;;;;;;;;;;4831598;29;20062;-76
2023/12/06 09:06:22;;;;;;;53.53;21.00;;;;;;;;;;4809730;29;20418;-76
2023/12/06 09:08:53;;;;;;;45.40;19.42;;;;;;;;;;4836494;29;20062;-77
2023/12/06 09:11:22;;;;;;;53.08;21.63;;;;;;;;;;4826116;29;20065;-76
2023/12/06 09:13:50;;;;;;;55.10;22.40;;;;;;;;;;4826495;29;20160;-76
2023/12/06 09:16:19;;;;;;;56.05;22.25;;;;;;;;;;4824053;29;20058;-76
2023/12/06 09:18:48;;;;;;;54.08;21.23;;;;;;;;;;4810986;29;20061;-76
2023/12/06 09:21:19;;;;;;;46.13;18.50;;;;;;;;;;4810809;29;20090;-76
2023/12/06 09:23:48;;;;;;;51.53;21.33;;;;;;;;;;4824246;29;20058;-76
2023/12/06 09:26:19;;;;;;;50.53;18.40;;;;;;;;;;4811105;29;20050;-77
2023/12/06 09:28:48;;;;;;;49.03;18.65;;;;;;;;;;4807423;29;20057;-76
2023/12/06 09:31:16;;;;;;;57.17;21.13;;;;;;;;;;4805539;29;20092;-77
2023/12/06 09:33:45;;;;;;;48.10;19.42;;;;;;;;;;4826494;29;20074;-76
2023/12/06 09:36:16;;;;;;;50.88;20.73;;;;;;;;;;4826134;29;20042;-77
2023/12/06 09:38:45;;;;;;;48.30;20.85;;;;;;;;;;4808921;29;20065;-77
2023/12/06 09:41:15;;;;;;;55.35;22.33;;;;;;;;;;4801929;29;20104;-78
2023/12/06 09:43:45;;;;;;;49.60;21.67;;;;;;;;;;4830911;29;20045;-79
2023/12/06 09:46:16;;;;;;;49.88;19.90;;;;;;;;;;4830449;29;20038;-78
2023/12/06 09:48:45;;;;;;;47.78;19.08;;;;;;;;;;4830374;29;21990;-78
2023/12/06 09:51:14;;;;;;;49.25;21.75;;;;;;;;;;4846764;29;20724;-78
2023/12/06 09:53:43;;;;;;;48.50;18.85;;;;;;;;;;4846490;29;20058;-78
2023/12/06 09:56:14;;;;;;;54.83;21.70;;;;;;;;;;4833137;29;20073;-78
2023/12/06 09:58:45;;;;;;;52.72;20.88;;;;;;;;;;4832941;29;20164;-78
2023/12/06 10:01:14;;;;;;;49.60;19.80;;;;;;;;;;4831644;29;21857;-79
2023/12/06 10:03:46;;;;;;;50.90;20.05;;;;;;;;;;4846459;29;20069;-78
2023/12/06 10:06:16;;;;;;;47.40;19.45;;;;;;;;;;4847152;29;20060;-78
2023/12/06 10:08:51;;;;;;;49.53;17.98;;;;;;;;;;4833643;29;21682;-78
2023/12/06 10:11:24;;;;;;;48.75;20.92;;;;;;;;;;4847809;29;20137;-77
2023/12/06 10:13:54;;;;;;;46.83;20.25;;;;;;;;;;4849517;29;20046;-77
2023/12/06 10:16:24;;;;;;;104.00;49.95;;;;;;;;;;4835337;29;20062;-78
2023/12/06 10:18:54;;;;;;;52.00;21.88;;;;;;;;;;4833102;29;20045;-77
2023/12/06 10:21:24;;;;;;;49.70;18.70;;;;;;;;;;4841873;29;20065;-78
2023/12/06 10:23:57;;;;;;;57.78;22.63;;;;;;;;;;4848519;29;20054;-78
2023/12/06 10:26:28;;;;;;;53.13;20.27;;;;;;;;;;4846941;29;20056;-79
2023/12/06 10:29:01;;;;;;;47.53;20.73;;;;;;;;;;4858440;29;20438;-77
2023/12/06 10:31:38;;;;;;;55.53;22.02;;;;;;;;;;4840322;29;20054;-78
2023/12/06 10:34:07;;;;;;;42.20;19.40;;;;;;;;;;4834140;29;20585;-78
2023/12/06 10:36:37;;;;;;;50.22;18.92;;;;;;;;;;4849440;29;20049;-78
2023/12/06 10:39:08;;;;;;;48.67;19.10;;;;;;;;;;4832901;29;20130;-77
2023/12/06 10:41:39;;;;;;;52.53;19.90;;;;;;;;;;4833715;29;20034;-78
2023/12/06 10:44:11;;;;;;;39.67;16.77;;;;;;;;;;4832453;29;20045;-78
2023/12/06 10:46:41;;;;;;;34.80;15.90;;;;;;;;;;4846927;29;20054;-78
2023/12/06 10:49:10;;;;;;;45.75;18.73;;;;;;;;;;4832827;29;20044;-76
2023/12/06 10:51:40;;;;;;;48.75;18.58;;;;;;;;;;4829916;29;20050;-74
2023/12/06 10:54:10;;;;;;;38.60;16.20;;;;;;;;;;4808703;29;20068;-76
2023/12/06 10:56:40;;;;;;;47.28;19.70;;;;;;;;;;4805282;29;22719;-75
2023/12/06 10:59:10;;;;;;;42.95;16.75;;;;;;;;;;4804713;29;20055;-75
2023/12/06 11:01:39;;;;;;;42.75;17.42;;;;;;;;;;4792480;29;20053;-75
2023/12/06 11:04:10;;;;;;;45.85;16.60;;;;;;;;;;4791560;29;20062;-75
2023/12/06 11:06:44;;;;;;;41.83;18.48;;;;;;;;;;4806642;29;20102;-73
2023/12/06 11:09:20;;;;;;;43.78;17.05;;;;;;;;;;4804394;29;20844;-74
2023/12/06 11:11:54;;;;;;;40.22;15.85;;;;;;;;;;4797504;29;20145;-74
2023/12/06 11:14:35;;;;;;;40.83;19.90;;;;;;;;;;4805661;29;20092;-75
2023/12/06 11:17:08;;;;;;;45.97;17.05;;;;;;;;;;4803246;29;20061;-75
2023/12/06 11:19:38;;;;;;;48.22;17.10;;;;;;;;;;4814923;29;20053;-76
2023/12/06 11:22:08;;;;;;;42.53;17.08;;;;;;;;;;4804068;29;20497;-74
2023/12/06 11:24:37;;;;;;;39.88;16.95;;;;;;;;;;4804063;29;20065;-75
2023/12/06 11:27:06;;;;;;;46.33;18.13;;;;;;;;;;4790352;29;20104;-76
2023/12/06 11:29:38;;;;;;;49.15;20.23;;;;;;;;;;4812741;29;20189;-77
2023/12/06 11:32:12;;;;;;;46.00;18.35;;;;;;;;;;4813351;29;20062;-75
2023/12/06 11:34:41;;;;;;;41.97;16.63;;;;;;;;;;4802917;29;20118;-75
2023/12/06 11:37:16;;;;;;;41.00;17.02;;;;;;;;;;4791410;29;22592;-75
2023/12/06 11:39:49;;;;;;;34.63;15.10;;;;;;;;;;4792735;29;20418;-75
2023/12/06 11:42:20;;;;;;;45.15;18.95;;;;;;;;;;4790864;29;20054;-77
2023/12/06 11:44:56;;;;;;;41.70;15.60;;;;;;;;;;4793741;29;20053;-75
2023/12/06 11:47:26;;;;;;;46.22;18.30;;;;;;;;;;4802779;29;20064;-74
2023/12/06 11:49:55;;;;;;;39.47;16.80;;;;;;;;;;4806943;29;22516;-75
2023/12/06 11:52:24;;;;;;;36.78;16.33;;;;;;;;;;4804745;29;20066;-75
2023/12/06 11:54:53;;;;;;;40.97;17.48;;;;;;;;;;4810711;29;20061;-74
2023/12/06 11:57:21;;;;;;;40.35;14.82;;;;;;;;;;4810794;29;20058;-75
2023/12/06 11:59:52;;;;;;;39.58;15.93;;;;;;;;;;4810420;29;20049;-74
2023/12/06 12:02:23;;;;;;;37.50;15.35;;;;;;;;;;4816678;29;20054;-78
2023/12/06 12:04:52;;;;;;;43.60;16.35;;;;;;;;;;4837538;29;20065;-78
2023/12/06 12:07:23;;;;;;;36.90;15.80;;;;;;;;;;4832966;29;20526;-78
2023/12/06 12:09:52;;;;;;;40.72;16.98;;;;;;;;;;4824049;29;20102;-78
2023/12/06 12:12:22;;;;;;;41.58;16.25;;;;;;;;;;4832754;29;20042;-77
2023/12/06 12:14:51;;;;;;;41.92;16.63;;;;;;;;;;4835192;29;20054;-77
2023/12/06 12:17:20;;;;;;;44.63;18.08;;;;;;;;;;4826585;29;20046;-78
2023/12/06 12:19:53;;;;;;;39.70;18.33;;;;;;;;;;4821574;29;21275;-77
2023/12/06 12:22:22;;;;;;;47.13;21.77;;;;;;;;;;4836001;29;20061;-78
2023/12/06 12:24:52;;;;;;;47.90;17.98;;;;;;;;;;4839515;29;20061;-78
2023/12/06 12:27:22;;;;;;;44.85;17.67;;;;;;;;;;4840969;29;20145;-77
2023/12/06 12:29:56;;;;;;;45.20;18.85;;;;;;;;;;4822035;29;20050;-78
2023/12/06 12:32:27;;;;;;;38.92;17.10;;;;;;;;;;4824513;29;20739;-78
2023/12/06 12:34:57;;;;;;;46.35;18.35;;;;;;;;;;4842067;29;20160;-78
2023/12/06 12:37:26;;;;;;;49.78;20.35;;;;;;;;;;4831184;29;20042;-77
2023/12/06 12:39:55;;;;;;;46.58;19.05;;;;;;;;;;4836025;29;20046;-77
2023/12/06 12:42:26;;;;;;;47.42;18.92;;;;;;;;;;4838435;29;20140;-77
2023/12/06 12:44:55;;;;;;;45.17;16.95;;;;;;;;;;4851714;29;20829;-77
2023/12/06 12:47:24;;;;;;;36.65;15.35;;;;;;;;;;4839081;29;20123;-78
2023/12/06 12:49:58;;;;;;;39.08;16.70;;;;;;;;;;4853422;29;20058;-78
2023/12/06 12:52:31;;;;;;;40.35;16.60;;;;;;;;;;4853762;29;20065;-80
2023/12/06 12:55:00;;;;;;;40.53;16.70;;;;;;;;;;4841435;29;20077;-78
2023/12/06 12:57:37;;;;;;;43.38;17.88;;;;;;;;;;4837814;29;20042;-76
2023/12/06 13:00:07;;;;;;;34.40;14.77;;;;;;;;;;4849581;29;20056;-77
2023/12/06 13:02:36;;;;;;;41.25;17.88;;;;;;;;;;4851753;29;20057;-77
2023/12/06 13:05:07;;;;;;;45.72;18.60;;;;;;;;;;4848687;29;20141;-76
2023/12/06 13:07:36;;;;;;;39.10;16.58;;;;;;;;;;4846468;29;20046;-77
2023/12/06 13:10:07;;;;;;;40.60;18.27;;;;;;;;;;4831564;29;20054;-77
2023/12/06 13:12:37;;;;;;;46.05;18.25;;;;;;;;;;4842689;29;20097;-77
2023/12/06 13:15:07;;;;;;;47.65;16.45;;;;;;;;;;4826471;29;20038;-78
2023/12/06 13:17:36;;;;;;;39.30;16.65;;;;;;;;;;4836472;29;20073;-78
2023/12/06 13:20:07;;;;;;;43.20;15.65;;;;;;;;;;4831596;29;20053;-79
2023/12/06 13:22:36;;;;;;;36.30;14.88;;;;;;;;;;4858813;29;20057;-78
2023/12/06 13:25:06;;;;;;;41.42;17.45;;;;;;;;;;4839084;29;20057;-77
2023/12/06 13:27:35;;;;;;;40.55;17.17;;;;;;;;;;4827393;29;20129;-78
2023/12/06 13:30:04;;;;;;;40.88;16.33;;;;;;;;;;4839360;29;20068;-77
2023/12/06 13:32:33;;;;;;;40.35;18.85;;;;;;;;;;4841844;29;20122;-78
2023/12/06 13:35:02;;;;;;;33.67;12.30;;;;;;;;;;4826426;29;22387;-78
2023/12/06 13:37:39;;;;;;;39.88;14.93;;;;;;;;;;4841561;29;20160;-78
2023/12/06 13:40:08;;;;;;;39.85;15.43;;;;;;;;;;4841550;29;20954;-78
2023/12/06 13:42:37;;;;;;;37.25;15.25;;;;;;;;;;4830890;29;20073;-78
2023/12/06 13:45:07;;;;;;;41.17;17.60;;;;;;;;;;4825339;29;20065;-78
2023/12/06 13:47:35;;;;;;;37.65;15.60;;;;;;;;;;4841050;29;20061;-79
2023/12/06 13:50:05;;;;;;;41.65;15.40;;;;;;;;;;4844086;29;20058;-78
2023/12/06 13:52:34;;;;;;;42.20;16.33;;;;;;;;;;4832828;29;20038;-78
2023/12/06 13:55:08;;;;;;;40.15;16.88;;;;;;;;;;4832205;29;20062;-79
2023/12/06 13:57:37;;;;;;;33.05;14.02;;;;;;;;;;4833784;29;20104;-78
2023/12/06 14:00:08;;;;;;;37.90;15.63;;;;;;;;;;4835087;29;20042;-77
2023/12/06 14:02:40;;;;;;;33.33;14.23;;;;;;;;;;4850036;29;20118;-79
2023/12/06 14:05:09;;;;;;;38.80;14.25;;;;;;;;;;4855559;29;20062;-78
2023/12/06 14:07:39;;;;;;;39.40;16.27;;;;;;;;;;4851094;29;20070;-78
2023/12/06 14:10:11;;;;;;;36.95;14.02;;;;;;;;;;4916669;23;20062;-78
2023/12/06 14:12:40;;;;;;;28.63;11.57;;;;;;;;;;4927024;29;20112;-78
2023/12/06 14:15:10;;;;;;;33.53;13.70;;;;;;;;;;4926397;29;20759;-78
2023/12/06 14:17:40;;;;;;;36.35;14.65;;;;;;;;;;4918439;29;20062;-78
2023/12/06 14:20:10;;;;;;;29.70;13.35;;;;;;;;;;4942529;28;22743;-78
2023/12/06 14:22:41;;;;;;;33.80;14.90;;;;;;;;;;4922266;29;20110;-76
2023/12/06 14:25:12;;;;;;;39.05;15.18;;;;;;;;;;4921763;29;20499;-76
2023/12/06 14:27:42;;;;;;;38.67;14.90;;;;;;;;;;4919164;29;20052;-76
2023/12/06 14:30:11;;;;;;;41.50;15.65;;;;;;;;;;4917725;29;20149;-76
2023/12/06 14:32:43;;;;;;;35.42;14.40;;;;;;;;;;4923072;29;20404;-75
2023/12/06 14:35:13;;;;;;;34.72;14.93;;;;;;;;;;4913532;29;22568;-75
2023/12/06 14:37:45;;;;;;;40.78;16.13;;;;;;;;;;4925937;29;20056;-74
2023/12/06 14:40:16;;;;;;;41.92;16.40;;;;;;;;;;4923795;29;20048;-75
2023/12/06 14:42:45;;;;;;;40.67;16.77;;;;;;;;;;4919346;29;20051;-75
2023/12/06 14:45:15;;;;;;;40.30;18.08;;;;;;;;;;4922307;29;20441;-76
2023/12/06 14:47:44;;;;;;;41.67;16.65;;;;;;;;;;4922998;29;22437;-76
2023/12/06 14:50:13;;;;;;;45.35;18.60;;;;;;;;;;4919035;29;20059;-76
2023/12/06 14:52:43;;;;;;;45.45;19.67;;;;;;;;;;4928295;28;20052;-76
2023/12/06 14:55:12;;;;;;;42.25;16.55;;;;;;;;;;4920873;29;20193;-76
2023/12/06 14:57:43;;;;;;;44.90;18.80;;;;;;;;;;4933618;28;20052;-75